Wetterstation Vordersexau
Wetterdaten: Woche 06.06.11 - 12.06.11 (KW23)
Datum Zeit Temp. A. Feuchte A. Luftdruck Regen Wind Richtung Taupunkt Windchill Windben
06.06.2011 00:00 15,2 C 85 % 1005,0 hPa 0,0 l/m 0,0 km/h SO 12,7 C 15,2 C 0,0 km/h
06.06.2011 01:00 15,5 C 86 % 1004,7 hPa 0,0 l/m 0,0 km/h SO 13,2 C 15,5 C 0,0 km/h
06.06.2011 02:00 14,3 C 86 % 1004,2 hPa 0,0 l/m 0,0 km/h SO 12,0 C 14,3 C 0,0 km/h
06.06.2011 03:00 14,1 C 86 % 1004,2 hPa 0,0 l/m 14,9 km/h SO 11,8 C 10,1 C 8,3 km/h
06.06.2011 04:00 14,6 C 86 % 1004,2 hPa 0,0 l/m 7,1 km/h NO 12,3 C 14,2 C 4,0 km/h
06.06.2011 05:00 13,9 C 86 % 1004,3 hPa 0,0 l/m 2,6 km/h SO 11,6 C 13,9 C 1,4 km/h
06.06.2011 06:00 14,9 C 86 % 1004,7 hPa 0,0 l/m 0,0 km/h S-SO 12,6 C 14,9 C 0,0 km/h
06.06.2011 07:00 15,8 C 84 % 1005,0 hPa 0,0 l/m 0,0 km/h S-SW 13,1 C 15,8 C 0,0 km/h
06.06.2011 08:00 17,7 C 70 % 1005,6 hPa 0,0 l/m 3,2 km/h S 12,2 C 17,7 C 1,8 km/h
06.06.2011 09:00 15,3 C 80 % 1006,5 hPa 0,0 l/m 3,2 km/h SO 11,9 C 15,3 C 1,8 km/h
06.06.2011 10:00 14,9 C 85 % 1006,6 hPa 1,4 l/m 0,0 km/h S-SW 12,4 C 14,9 C 0,0 km/h
06.06.2011 11:00 18,3 C 77 % 1006,6 hPa 0,4 l/m 11,7 km/h S 14,2 C 16,2 C 6,5 km/h
06.06.2011 12:00 17,8 C 80 % 1006,4 hPa 0,0 l/m 0,0 km/h SW 14,3 C 17,8 C 0,0 km/h
06.06.2011 13:00 23,2 C 63 % 1005,7 hPa 0,0 l/m 0,0 km/h SW 15,8 C 23,2 C 0,0 km/h
06.06.2011 14:00 24,8 C 59 % 1005,6 hPa 0,0 l/m 9,7 km/h W-NW 16,2 C 24,0 C 5,4 km/h
06.06.2011 15:00 27,1 C 50 % 1005,1 hPa 0,0 l/m 20,1 km/h W 15,8 C 25,4 C 11,2 km/h
06.06.2011 16:00 30,2 C 39 % 1004,5 hPa 0,0 l/m 1,3 km/h W-SW 14,7 C 30,2 C 0,7 km/h
06.06.2011 17:00 27,2 C 41 % 1004,1 hPa 0,0 l/m 10,4 km/h SW 12,8 C 26,5 C 5,8 km/h
06.06.2011 18:00 26,8 C 41 % 1004,2 hPa 0,0 l/m 20,7 km/h W 12,4 C 24,9 C 11,5 km/h
06.06.2011 19:00 24,8 C 47 % 1004,2 hPa 0,0 l/m 7,1 km/h W 12,7 C 24,6 C 4,0 km/h
06.06.2011 20:00 20,8 C 59 % 1004,3 hPa 0,0 l/m 0,0 km/h W-SW 12,5 C 20,8 C 0,0 km/h
06.06.2011 21:00 19,3 C 64 % 1004,4 hPa 0,0 l/m 0,0 km/h N-NO 12,3 C 19,3 C 0,0 km/h
06.06.2011 22:00 17,0 C 74 % 1005,0 hPa 0,0 l/m 5,8 km/h SO 12,3 C 17,0 C 3,2 km/h
06.06.2011 23:00 15,4 C 77 % 1005,0 hPa 0,0 l/m 0,0 km/h S-SO 11,4 C 15,4 C 0,0 km/h
07.06.2011 00:00 14,6 C 81 % 1004,9 hPa 0,0 l/m 0,0 km/h O 11,4 C 14,6 C 0,0 km/h
07.06.2011 01:00 13,5 C 82 % 1004,7 hPa 0,0 l/m 0,0 km/h O-SO 10,5 C 13,5 C 0,0 km/h
07.06.2011 02:00 12,3 C 85 % 1004,8 hPa 0,0 l/m 0,0 km/h SO 9,9 C 12,3 C 0,0 km/h
07.06.2011 03:00 11,9 C 86 % 1004,7 hPa 0,0 l/m 0,0 km/h SO 9,6 C 11,9 C 0,0 km/h
07.06.2011 04:00 11,8 C 86 % 1004,6 hPa 0,0 l/m 0,0 km/h SO 9,5 C 11,8 C 0,0 km/h
07.06.2011 05:00 11,6 C 86 % 1004,8 hPa 0,0 l/m 0,0 km/h O-SO 9,3 C 11,6 C 0,0 km/h
07.06.2011 06:00 12,1 C 86 % 1004,9 hPa 0,0 l/m 0,0 km/h S-SO 9,8 C 12,1 C 0,0 km/h
07.06.2011 07:00 14,9 C 83 % 1004,7 hPa 0,0 l/m 0,6 km/h S 12,0 C 14,9 C 0,4 km/h
07.06.2011 08:00 24,9 C 61 % 1004,8 hPa 0,0 l/m 0,0 km/h W-NW 16,8 C 24,9 C 0,0 km/h
07.06.2011 09:00 27,2 C 50 % 1004,7 hPa 0,0 l/m 0,0 km/h W-NW 15,9 C 27,2 C 0,0 km/h
07.06.2011 10:00 28,3 C 46 % 1004,3 hPa 0,0 l/m 0,0 km/h N-NW 15,6 C 28,3 C 0,0 km/h
07.06.2011 11:00 30,3 C 43 % 1004,0 hPa 0,0 l/m 0,0 km/h NW 16,3 C 30,3 C 0,0 km/h
07.06.2011 12:00 28,8 C 43 % 1003,4 hPa 0,0 l/m 11,0 km/h N-NO 15,0 C 28,3 C 6,1 km/h
07.06.2011 13:00 29,1 C 40 % 1003,0 hPa 0,0 l/m 1,9 km/h N 14,1 C 29,1 C 1,1 km/h
07.06.2011 14:00 30,5 C 41 % 1002,1 hPa 0,0 l/m 0,0 km/h W 15,7 C 30,5 C 0,0 km/h
07.06.2011 15:00 28,8 C 44 % 1001,6 hPa 0,0 l/m 0,0 km/h N-NO 15,3 C 28,8 C 0,0 km/h
07.06.2011 16:00 26,5 C 49 % 1001,1 hPa 0,0 l/m 5,8 km/h N-NO 14,9 C 26,5 C 3,2 km/h
07.06.2011 17:00 24,3 C 56 % 1001,2 hPa 0,0 l/m 0,0 km/h NO 14,9 C 24,3 C 0,0 km/h
07.06.2011 18:00 21,8 C 72 % 1000,8 hPa 0,0 l/m 0,0 km/h S-SO 16,5 C 21,8 C 0,0 km/h
07.06.2011 19:00 17,8 C 76 % 1001,9 hPa 0,4 l/m 0,0 km/h S-SO 13,5 C 17,8 C 0,0 km/h
07.06.2011 20:00 16,1 C 84 % 1001,8 hPa 0,4 l/m 0,0 km/h NO 13,4 C 16,1 C 0,0 km/h
07.06.2011 21:00 15,8 C 85 % 1001,1 hPa 0,4 l/m 0,0 km/h N 13,3 C 15,8 C 0,0 km/h
07.06.2011 22:00 15,8 C 85 % 1002,8 hPa 0,0 l/m 0,0 km/h S-SW 13,3 C 15,8 C 0,0 km/h
07.06.2011 23:00 15,4 C 85 % 1002,8 hPa 0,0 l/m 0,0 km/h W-SW 12,9 C 15,4 C 0,0 km/h
08.06.2011 00:00 15,4 C 85 % 1003,4 hPa 0,4 l/m 18,8 km/h W-SW 12,9 C 10,6 C 10,4 km/h
08.06.2011 01:00 14,6 C 85 % 1003,3 hPa 0,7 l/m 0,0 km/h S 12,1 C 14,6 C 0,0 km/h
08.06.2011 02:00 14,4 C 86 % 1003,1 hPa 0,4 l/m 0,0 km/h O 12,1 C 14,4 C 0,0 km/h
08.06.2011 03:00 14,3 C 86 % 1003,0 hPa 0,0 l/m 0,0 km/h NO 12,0 C 14,3 C 0,0 km/h
08.06.2011 04:00 14,4 C 85 % 1002,9 hPa 0,0 l/m 0,0 km/h SW 11,9 C 14,4 C 0,0 km/h
08.06.2011 05:00 14,8 C 86 % 1003,2 hPa 0,0 l/m 0,0 km/h SW 12,5 C 14,8 C 0,0 km/h
08.06.2011 06:00 14,9 C 86 % 1003,3 hPa 0,0 l/m 0,0 km/h W-SW 12,6 C 14,9 C 0,0 km/h
08.06.2011 07:00 15,1 C 86 % 1003,9 hPa 0,0 l/m 0,0 km/h W 12,8 C 15,1 C 0,0 km/h
08.06.2011 08:00 14,9 C 86 % 1004,4 hPa 0,7 l/m 4,5 km/h W-NW 12,6 C 14,9 C 2,5 km/h
08.06.2011 09:00 14,6 C 86 % 1005,0 hPa 1,4 l/m 0,0 km/h N-NO 12,3 C 14,6 C 0,0 km/h
08.06.2011 10:00 13,6 C 87 % 1006,0 hPa 1,1 l/m 0,0 km/h W-NW 11,5 C 13,6 C 0,0 km/h
08.06.2011 11:00 13,5 C 87 % 1007,2 hPa 1,4 l/m 3,2 km/h S-SW 11,4 C 13,5 C 1,8 km/h
08.06.2011 12:00 13,2 C 87 % 1008,4 hPa 1,4 l/m 5,2 km/h S 11,1 C 13,2 C 2,9 km/h
08.06.2011 13:00 14,3 C 86 % 1008,2 hPa 0,4 l/m 0,0 km/h SW 12,0 C 14,3 C 0,0 km/h
08.06.2011 14:00 16,3 C 78 % 1008,5 hPa 0,0 l/m 0,0 km/h O 12,5 C 16,3 C 0,0 km/h
08.06.2011 15:00 16,5 C 73 % 1008,5 hPa 0,0 l/m 0,0 km/h SO 11,6 C 16,5 C 0,0 km/h
08.06.2011 16:00 17,4 C 72 % 1008,6 hPa 0,0 l/m 1,9 km/h SW 12,3 C 17,4 C 1,1 km/h
08.06.2011 17:00 16,4 C 75 % 1008,8 hPa 0,0 l/m 0,0 km/h SO 12,0 C 16,4 C 0,0 km/h
08.06.2011 18:00 15,3 C 79 % 1009,0 hPa 0,0 l/m 0,0 km/h SO 11,7 C 15,3 C 0,0 km/h
08.06.2011 19:00 15,0 C 81 % 1009,3 hPa 0,0 l/m 0,0 km/h SO 11,8 C 15,0 C 0,0 km/h
08.06.2011 20:00 14,2 C 84 % 1010,0 hPa 0,0 l/m 0,0 km/h N-NW 11,5 C 14,2 C 0,0 km/h
08.06.2011 21:00 12,6 C 86 % 1011,0 hPa 0,7 l/m 0,0 km/h S-SO 10,3 C 12,6 C 0,0 km/h
08.06.2011 22:00 12,4 C 86 % 1011,8 hPa 0,7 l/m 0,0 km/h SO 10,1 C 12,4 C 0,0 km/h
08.06.2011 23:00 12,1 C 86 % 1012,2 hPa 2,5 l/m 0,0 km/h NO 9,8 C 12,1 C 0,0 km/h
09.06.2011 00:00 12,2 C 86 % 1012,4 hPa 1,8 l/m 0,0 km/h NO 9,9 C 12,2 C 0,0 km/h
09.06.2011 01:00 11,6 C 86 % 1012,7 hPa 2,8 l/m 1,9 km/h S-SO 9,3 C 11,6 C 1,1 km/h
09.06.2011 02:00 11,4 C 85 % 1013,1 hPa 0,0 l/m 3,2 km/h S-SO 9,0 C 11,4 C 1,8 km/h
09.06.2011 03:00 11,3 C 85 % 1013,3 hPa 0,4 l/m 0,0 km/h S-SO 8,9 C 11,3 C 0,0 km/h
09.06.2011 04:00 10,9 C 85 % 1013,1 hPa 0,0 l/m 0,0 km/h S-SO 8,5 C 10,9 C 0,0 km/h
09.06.2011 05:00 10,7 C 86 % 1013,2 hPa 0,0 l/m 0,0 km/h SO 8,5 C 10,7 C 0,0 km/h
09.06.2011 06:00 11,0 C 85 % 1013,8 hPa 0,0 l/m 0,0 km/h SO 8,6 C 11,0 C 0,0 km/h
09.06.2011 07:00 11,8 C 85 % 1013,9 hPa 0,0 l/m 0,0 km/h O-NO 9,4 C 11,8 C 0,0 km/h
09.06.2011 08:00 13,6 C 87 % 1014,3 hPa 0,0 l/m 0,0 km/h O-NO 11,5 C 13,6 C 0,0 km/h
09.06.2011 09:00 16,1 C 78 % 1014,5 hPa 0,0 l/m 0,0 km/h SO 12,3 C 16,1 C 0,0 km/h
09.06.2011 10:00 17,5 C 73 % 1014,4 hPa 0,0 l/m 0,0 km/h S-SW 12,6 C 17,5 C 0,0 km/h
09.06.2011 11:00 19,8 C 63 % 1014,3 hPa 0,0 l/m 0,0 km/h NO 12,5 C 19,8 C 0,0 km/h
09.06.2011 12:00 22,3 C 50 % 1014,2 hPa 0,0 l/m 0,0 km/h SW 11,4 C 22,3 C 0,0 km/h
09.06.2011 13:00 21,9 C 44 % 1014,4 hPa 0,0 l/m 1,9 km/h W-SW 9,1 C 21,9 C 1,1 km/h
09.06.2011 14:00 19,6 C 49 % 1014,4 hPa 0,0 l/m 0,0 km/h W 8,6 C 19,6 C 0,0 km/h
09.06.2011 15:00 20,1 C 50 % 1014,5 hPa 0,0 l/m 0,0 km/h SO 9,3 C 20,1 C 0,0 km/h
09.06.2011 16:00 19,9 C 49 % 1014,5 hPa 0,0 l/m 0,0 km/h W 8,9 C 19,9 C 0,0 km/h
09.06.2011 17:00 19,6 C 52 % 1014,6 hPa 0,0 l/m 0,0 km/h W-NW 9,5 C 19,6 C 0,0 km/h
09.06.2011 18:00 23,9 C 41 % 1014,7 hPa 0,0 l/m 1,9 km/h W-NW 9,8 C 23,9 C 1,1 km/h
09.06.2011 19:00 17,8 C 52 % 1015,0 hPa 0,0 l/m 0,0 km/h O-NO 7,8 C 17,8 C 0,0 km/h
09.06.2011 20:00 16,3 C 64 % 1015,3 hPa 0,0 l/m 0,0 km/h O-SO 9,5 C 16,3 C 0,0 km/h
09.06.2011 21:00 13,9 C 74 % 1015,5 hPa 0,0 l/m 0,0 km/h O-NO 9,3 C 13,9 C 0,0 km/h
09.06.2011 22:00 11,9 C 80 % 1016,0 hPa 0,0 l/m 0,0 km/h NO 8,6 C 11,9 C 0,0 km/h
09.06.2011 23:00 10,4 C 84 % 1015,9 hPa 0,0 l/m 0,0 km/h SO 7,8 C 10,4 C 0,0 km/h
10.06.2011 00:00 9,6 C 85 % 1015,9 hPa 0,0 l/m 0,0 km/h SO 7,2 C 9,6 C 0,0 km/h
10.06.2011 01:00 8,9 C 86 % 1015,6 hPa 0,0 l/m 0,0 km/h O-NO 6,7 C 8,9 C 0,0 km/h
10.06.2011 02:00 8,4 C 86 % 1015,2 hPa 0,0 l/m 0,0 km/h S-SO 6,2 C 8,4 C 0,0 km/h
10.06.2011 03:00 8,1 C 87 % 1015,0 hPa 0,0 l/m 0,0 km/h O-NO 6,1 C 8,1 C 0,0 km/h
10.06.2011 04:00 7,4 C 87 % 1015,1 hPa 0,0 l/m 0,0 km/h SO 5,4 C 7,4 C 0,0 km/h
10.06.2011 05:00 6,9 C 87 % 1014,8 hPa 0,0 l/m 0,0 km/h SO 4,9 C 6,9 C 0,0 km/h
10.06.2011 06:00 7,5 C 87 % 1014,9 hPa 0,0 l/m 0,0 km/h SO 5,5 C 7,5 C 0,0 km/h
10.06.2011 07:00 9,6 C 87 % 1014,9 hPa 0,0 l/m 0,0 km/h S-SO 7,5 C 9,6 C 0,0 km/h
10.06.2011 08:00 16,9 C 68 % 1014,9 hPa 0,0 l/m 0,0 km/h S-SW 11,0 C 16,9 C 0,0 km/h
10.06.2011 09:00 22,1 C 52 % 1014,7 hPa 0,0 l/m 0,0 km/h S 11,8 C 22,1 C 0,0 km/h
10.06.2011 10:00 24,3 C 46 % 1014,2 hPa 0,0 l/m 0,0 km/h W-NW 11,9 C 24,3 C 0,0 km/h
10.06.2011 11:00 25,0 C 44 % 1014,1 hPa 0,0 l/m 13,0 km/h W 11,9 C 23,6 C 7,2 km/h
10.06.2011 12:00 23,6 C 44 % 1014,0 hPa 0,0 l/m 7,8 km/h S-SW 10,6 C 23,2 C 4,3 km/h
10.06.2011 13:00 23,8 C 41 % 1013,6 hPa 0,0 l/m 1,9 km/h S-SO 9,7 C 23,8 C 1,1 km/h
10.06.2011 14:00 24,8 C 43 % 1013,0 hPa 0,0 l/m 25,9 km/h S 11,4 C 21,8 C 14,4 km/h
10.06.2011 15:00 25,4 C 40 % 1012,9 hPa 0,0 l/m 9,1 km/h N-NW 10,8 C 24,8 C 5,0 km/h
10.06.2011 16:00 20,8 C 49 % 1012,9 hPa 0,0 l/m 0,0 km/h N-NO 9,7 C 20,8 C 0,0 km/h
10.06.2011 17:00 21,1 C 50 % 1012,8 hPa 0,0 l/m 0,0 km/h W-SW 10,3 C 21,1 C 0,0 km/h
10.06.2011 18:00 22,6 C 46 % 1012,7 hPa 0,0 l/m 0,0 km/h W-SW 10,4 C 22,6 C 0,0 km/h
10.06.2011 19:00 19,9 C 54 % 1012,7 hPa 0,0 l/m 0,0 km/h N-NO 10,3 C 19,9 C 0,0 km/h
10.06.2011 20:00 16,4 C 67 % 1013,1 hPa 0,0 l/m 0,6 km/h SO 10,3 C 16,4 C 0,4 km/h
10.06.2011 21:00 14,7 C 77 % 1013,5 hPa 0,0 l/m 0,0 km/h SO 10,7 C 14,7 C 0,0 km/h
10.06.2011 22:00 13,6 C 82 % 1014,2 hPa 0,0 l/m 0,0 km/h SO 10,6 C 13,6 C 0,0 km/h
10.06.2011 23:00 13,2 C 84 % 1014,3 hPa 0,0 l/m 0,0 km/h S-SO 10,6 C 13,2 C 0,0 km/h
11.06.2011 00:00 13,4 C 85 % 1014,1 hPa 0,0 l/m 0,0 km/h SO 10,9 C 13,4 C 0,0 km/h
11.06.2011 01:00 13,0 C 85 % 1014,3 hPa 0,0 l/m 0,0 km/h SO 10,5 C 13,0 C 0,0 km/h
11.06.2011 02:00 13,0 C 86 % 1014,1 hPa 0,0 l/m 0,0 km/h S-SO 10,7 C 13,0 C 0,0 km/h
11.06.2011 03:00 12,6 C 86 % 1014,4 hPa 0,4 l/m 0,0 km/h N-NO 10,3 C 12,6 C 0,0 km/h
11.06.2011 04:00 12,7 C 86 % 1014,5 hPa 0,0 l/m 0,0 km/h SW 10,4 C 12,7 C 0,0 km/h
11.06.2011 05:00 12,9 C 86 % 1014,9 hPa 0,0 l/m 0,0 km/h W-NW 10,6 C 12,9 C 0,0 km/h
11.06.2011 06:00 12,9 C 86 % 1015,4 hPa 0,0 l/m 0,0 km/h W-NW 10,6 C 12,9 C 0,0 km/h
11.06.2011 07:00 13,4 C 86 % 1015,7 hPa 0,0 l/m 0,0 km/h SW 11,1 C 13,4 C 0,0 km/h
11.06.2011 08:00 14,9 C 83 % 1016,2 hPa 0,0 l/m 4,5 km/h S-SO 12,0 C 14,9 C 2,5 km/h
11.06.2011 09:00 17,0 C 77 % 1016,4 hPa 0,0 l/m 1,9 km/h NO 12,9 C 17,0 C 1,1 km/h
11.06.2011 10:00 20,3 C 61 % 1016,4 hPa 0,0 l/m 0,0 km/h N-NO 12,5 C 20,3 C 0,0 km/h
11.06.2011 11:00 19,9 C 63 % 1016,6 hPa 0,0 l/m 0,0 km/h N-NO 12,6 C 19,9 C 0,0 km/h
11.06.2011 12:00 18,4 C 59 % 1016,5 hPa 0,0 l/m 1,9 km/h S-SO 10,2 C 18,4 C 1,1 km/h
11.06.2011 13:00 20,9 C 55 % 1016,3 hPa 0,0 l/m 14,9 km/h W-NW 11,5 C 18,4 C 8,3 km/h
11.06.2011 14:00 24,1 C 45 % 1015,8 hPa 0,0 l/m 0,0 km/h N-NO 11,4 C 24,1 C 0,0 km/h
11.06.2011 15:00 20,9 C 47 % 1015,8 hPa 0,0 l/m 0,0 km/h N-NO 9,2 C 20,9 C 0,0 km/h
11.06.2011 16:00 26,1 C 39 % 1015,5 hPa 0,0 l/m 0,0 km/h SO 11,0 C 26,1 C 0,0 km/h
11.06.2011 17:00 26,0 C 36 % 1015,3 hPa 0,0 l/m 0,0 km/h S 9,8 C 26,0 C 0,0 km/h
11.06.2011 18:00 22,4 C 41 % 1015,3 hPa 0,0 l/m 0,0 km/h W 8,5 C 22,4 C 0,0 km/h
11.06.2011 19:00 19,3 C 52 % 1015,4 hPa 0,0 l/m 0,0 km/h N-NO 9,2 C 19,3 C 0,0 km/h
11.06.2011 20:00 16,1 C 59 % 1016,3 hPa 0,0 l/m 0,0 km/h SO 8,1 C 16,1 C 0,0 km/h
11.06.2011 21:00 14,7 C 71 % 1016,7 hPa 0,0 l/m 0,0 km/h SO 9,5 C 14,7 C 0,0 km/h
11.06.2011 22:00 12,6 C 77 % 1017,3 hPa 0,0 l/m 0,0 km/h S-SO 8,7 C 12,6 C 0,0 km/h
11.06.2011 23:00 11,6 C 83 % 1017,4 hPa 0,0 l/m 0,0 km/h N-NW 8,8 C 11,6 C 0,0 km/h
12.06.2011 00:00 10,8 C 84 % 1018,0 hPa 0,0 l/m 0,0 km/h NO 8,2 C 10,8 C 0,0 km/h
12.06.2011 01:00 9,4 C 85 % 1017,8 hPa 0,0 l/m 0,0 km/h O-SO 7,0 C 9,4 C 0,0 km/h
12.06.2011 02:00 8,4 C 86 % 1017,8 hPa 0,0 l/m 0,0 km/h SO 6,2 C 8,4 C 0,0 km/h
12.06.2011 03:00 8,1 C 86 % 1017,9 hPa 0,0 l/m 0,0 km/h S-SO 5,9 C 8,1 C 0,0 km/h
12.06.2011 04:00 7,8 C 87 % 1017,7 hPa 0,0 l/m 0,0 km/h O-NO 5,8 C 7,8 C 0,0 km/h
12.06.2011 05:00 7,5 C 87 % 1017,9 hPa 0,0 l/m 0,0 km/h NO 5,5 C 7,5 C 0,0 km/h
12.06.2011 06:00 8,1 C 87 % 1018,2 hPa 0,0 l/m 0,0 km/h SO 6,1 C 8,1 C 0,0 km/h
12.06.2011 07:00 10,2 C 86 % 1017,9 hPa 0,0 l/m 0,0 km/h W-SW 8,0 C 10,2 C 0,0 km/h
12.06.2011 08:00 20,9 C 60 % 1018,1 hPa 0,0 l/m 0,0 km/h W 12,8 C 20,9 C 0,0 km/h
12.06.2011 09:00 22,2 C 54 % 1017,9 hPa 0,0 l/m 0,0 km/h N-NW 12,4 C 22,2 C 0,0 km/h
12.06.2011 10:00 24,2 C 46 % 1017,6 hPa 0,0 l/m 6,5 km/h W-NW 11,8 C 24,2 C 3,6 km/h
12.06.2011 11:00 25,4 C 45 % 1017,3 hPa 0,0 l/m 1,3 km/h W-NW 12,6 C 25,4 C 0,7 km/h
12.06.2011 12:00 23,4 C 44 % 1016,8 hPa 0,0 l/m 0,0 km/h NO 10,4 C 23,4 C 0,0 km/h
12.06.2011 13:00 24,2 C 42 % 1016,5 hPa 0,0 l/m 0,0 km/h N-NW 10,5 C 24,2 C 0,0 km/h
12.06.2011 14:00 25,2 C 39 % 1015,9 hPa 0,0 l/m 0,0 km/h W-NW 10,2 C 25,2 C 0,0 km/h
12.06.2011 15:00 26,2 C 38 % 1015,4 hPa 0,0 l/m 7,1 km/h NW 10,7 C 26,1 C 4,0 km/h
12.06.2011 16:00 28,8 C 35 % 1015,2 hPa 0,0 l/m 0,0 km/h S 11,8 C 28,8 C 0,0 km/h
12.06.2011 17:00 29,9 C 32 % 1014,5 hPa 0,0 l/m 0,0 km/h N-NO 11,4 C 29,9 C 0,0 km/h
12.06.2011 18:00 28,9 C 31 % 1014,3 hPa 0,0 l/m 10,4 km/h W-NW 10,1 C 28,4 C 5,8 km/h
12.06.2011 19:00 24,7 C 37 % 1014,2 hPa 0,0 l/m 0,0 km/h W-NW 9,0 C 24,7 C 0,0 km/h
12.06.2011 20:00 20,4 C 54 % 1014,1 hPa 0,0 l/m 0,0 km/h NO 10,8 C 20,4 C 0,0 km/h
12.06.2011 21:00 17,2 C 63 % 1014,4 hPa 0,0 l/m 0,0 km/h O-SO 10,1 C 17,2 C 0,0 km/h
12.06.2011 22:00 15,3 C 71 % 1015,1 hPa 0,0 l/m 0,0 km/h O-SO 10,1 C 15,3 C 0,0 km/h
12.06.2011 23:00 14,9 C 76 % 1015,1 hPa 0,0 l/m 0,0 km/h NO 10,7 C 14,9 C 0,0 km/h
Min-Datum _ 10.06.11 12.06.11 07.06.11 - 06.06.11 - 10.06.11 10.06.11 06.06.11
_ Min-Zeit 05:30 18:30 18:30 - 00:30 - 05:30 05:30 00:30
Minimum _ 6,9 C 31 % 1000,8 hPa - 0,0 km/h - 4,9 C 6,9 C 0,0 km/h
Max-Datum _ 07.06.11 08.06.11 12.06.11 09.06.11 10.06.11 - 07.06.11 07.06.11 10.06.11
_ Max-Zeit 14:30 10:30 06:30 01:30 14:30 - 08:30 14:30 14:30
Maximum _ 30,5 C 87 % 1018,2 hPa 2,8 l/m 25,9 km/h
S
- 16,8 C 30,5 C 14,4 km/h
S
Durchschnitt _ 17,3 C 69 % 1010,8 hPa #19,9 l/m 1,7 km/h SO 11,0 C 17,2 C 1,0 km/h
www.sexauwetter.de